YJBY weather

Jervis Bay Airport
Jervis Bay Territory, Australian Capital Territory, Australia

Public forecast

Using degrees Celsius for public forecast. Weather courtesy of forecast.io.

METAR (pilot weather report)

Closest report is Nowra Airport, 14.3 nm (26.4 km) NNW. Retrieved 2019/03/27 00:00 UTC (2 minutes ago):

YSNW 270000Z 14006KT 9999 BKN045 19/11 Q1025 NOSIG

TAF (pilot weather forecast)

Forecast is more than 6 hours old.

Closest forecast is Canberra International Airport, 74.3 nm (137.6 km) W. Retrieved 2019/03/26 18:00 UTC (6 hours ago):

TAF YSCB 261701Z 2618/2718 15004KT CAVOK FM270000 06008KT CAVOK FM270400 06010KT 9999 SCT040 FM271300 VRB03KT CAVOK